Time;durP1;ratioP1;P1;durP2;ratioP2;P2;SDS_P1;SDS_P2;PMS_P1;PMS_P2;Temp;Humidity;BMP_temperature;BMP_pressure;BME280_temperature;BME280_humidity;BME280_pressure;Samples;Min_cycle;Max_cycle;Signal;HPM_P1;HPM_P2
2020/12/17 00:04:00;;;;;;;31.23;19.05;;;8.50;99.90;;;;;;12383694;28;20055;-85
2020/12/17 00:10:12;;;;;;;33.25;17.27;;;8.40;99.90;;;;;;12394207;28;20090;-85
2020/12/17 00:16:14;;;;;;;28.20;17.80;;;8.50;99.90;;;;;;12374642;28;20057;-85
2020/12/17 00:22:15;;;;;;;30.00;18.40;;;8.50;99.90;;;;;;12385199;28;20072;-84
2020/12/17 00:28:16;;;;;;;33.28;18.15;;;8.40;99.90;;;;;;12427019;28;20057;-85
2020/12/17 00:34:19;;;;;;;30.50;18.13;;;8.30;99.90;;;;;;12398587;28;20508;-84
2020/12/17 00:40:22;;;;;;;25.92;16.85;;;8.30;99.90;;;;;;12390775;28;20061;-84
2020/12/17 00:46:23;;;;;;;24.75;16.25;;;8.40;99.90;;;;;;12388505;28;20074;-84
2020/12/17 00:52:25;;;;;;;25.10;15.35;;;8.50;99.90;;;;;;12397508;28;20053;-84
2020/12/17 00:58:26;;;;;;;24.58;14.38;;;8.60;99.90;;;;;;12407997;28;20066;-84
2020/12/17 01:04:28;;;;;;;20.52;14.07;;;8.60;99.90;;;;;;12375444;28;20542;-84
2020/12/17 01:10:37;;;;;;;22.10;13.93;;;8.70;99.90;;;;;;12387986;28;20482;-84
2020/12/17 01:16:39;;;;;;;26.35;14.40;;;8.80;99.90;;;;;;12362371;28;20158;-84
2020/12/17 01:22:40;;;;;;;19.75;13.45;;;8.90;99.90;;;;;;12386803;28;20054;-84
2020/12/17 01:28:42;;;;;;;23.55;14.43;;;8.80;99.90;;;;;;12377135;28;20086;-84
2020/12/17 01:34:43;;;;;;;21.63;13.10;;;8.80;99.90;;;;;;12356700;28;20498;-86
2020/12/17 01:40:56;;;;;;;23.52;14.32;;;8.70;99.90;;;;;;12387653;28;20503;-84
2020/12/17 01:46:57;;;;;;;24.70;14.60;;;8.70;99.90;;;;;;12369463;28;20057;-85
2020/12/17 01:52:59;;;;;;;24.55;14.82;;;8.60;99.90;;;;;;12387011;28;20513;-84
2020/12/17 01:59:23;;;;;;;24.67;15.38;;;8.50;99.90;;;;;;12374903;28;20073;-84
2020/12/17 02:05:25;;;;;;;22.95;14.85;;;8.60;99.90;;;;;;12395399;28;20511;-84
2020/12/17 02:11:26;;;;;;;23.83;15.25;;;8.60;99.90;;;;;;12393785;28;20058;-84
2020/12/17 02:17:27;;;;;;;27.08;15.82;;;8.50;99.90;;;;;;12382750;28;20104;-84
2020/12/17 02:23:29;;;;;;;23.98;15.27;;;8.50;99.90;;;;;;12374521;28;20073;-84
2020/12/17 02:29:31;;;;;;;25.70;15.60;;;8.60;99.90;;;;;;12367461;28;20061;-84
2020/12/17 02:35:32;;;;;;;23.73;16.25;;;8.60;99.90;;;;;;12386507;28;20046;-85
2020/12/17 02:41:33;;;;;;;23.25;15.25;;;8.60;99.90;;;;;;12378862;28;20061;-85
2020/12/17 02:47:34;;;;;;;25.75;15.40;;;8.70;99.90;;;;;;12378418;28;20065;-85
2020/12/17 02:53:36;;;;;;;26.48;15.77;;;8.70;99.90;;;;;;12397170;28;20061;-84
2020/12/17 02:59:37;;;;;;;29.52;16.17;;;8.60;99.90;;;;;;12392023;28;20486;-85
2020/12/17 03:05:39;;;;;;;24.45;15.68;;;8.60;99.90;;;;;;12377230;28;20108;-84
2020/12/17 03:11:49;;;;;;;25.10;16.52;;;8.60;99.90;;;;;;12374944;28;20181;-84
2020/12/17 03:17:50;;;;;;;29.10;15.80;;;8.50;99.90;;;;;;12375912;28;20050;-84
2020/12/17 03:23:52;;;;;;;27.05;16.42;;;8.60;99.90;;;;;;12351255;28;20149;-84
2020/12/17 03:29:53;;;;;;;22.42;14.95;;;8.60;99.90;;;;;;12359238;28;20100;-85
2020/12/17 03:35:55;;;;;;;22.15;14.32;;;8.60;99.90;;;;;;12371809;28;20730;-84
2020/12/17 03:42:14;;;;;;;22.67;14.23;;;8.60;99.90;;;;;;12339207;28;20054;-84
2020/12/17 03:48:15;;;;;;;25.27;14.77;;;8.50;99.90;;;;;;12359560;28;20089;-84
2020/12/17 03:54:17;;;;;;;20.98;13.40;;;8.60;99.90;;;;;;12393524;28;20046;-84
2020/12/17 04:00:18;;;;;;;23.45;14.73;;;8.70;99.90;;;;;;12400186;28;20081;-84
2020/12/17 04:06:19;;;;;;;26.20;14.35;;;8.60;99.90;;;;;;12392890;28;20119;-84
2020/12/17 04:12:31;;;;;;;20.40;12.75;;;8.50;99.90;;;;;;12395402;28;20353;-84
2020/12/17 04:18:33;;;;;;;24.15;14.13;;;8.50;99.90;;;;;;12395937;28;20058;-84
2020/12/17 04:24:34;;;;;;;22.70;15.15;;;8.60;99.90;;;;;;12398047;28;20081;-84
2020/12/17 04:30:36;;;;;;;24.77;15.05;;;8.60;99.90;;;;;;12405465;28;20053;-84
2020/12/17 04:36:37;;;;;;;22.92;14.45;;;8.60;99.90;;;;;;12401357;28;20065;-84
2020/12/17 04:42:51;;;;;;;20.80;13.15;;;8.70;99.90;;;;;;12399897;28;20065;-84
2020/12/17 04:48:53;;;;;;;19.00;12.02;;;8.80;99.90;;;;;;12403419;28;20054;-84
2020/12/17 04:54:56;;;;;;;19.50;13.52;;;8.80;99.90;;;;;;12392311;28;20085;-84
2020/12/17 05:00:58;;;;;;;18.27;12.73;;;9.00;99.90;;;;;;12378340;28;20090;-84
2020/12/17 05:06:59;;;;;;;18.85;12.43;;;9.00;99.90;;;;;;12394065;28;20438;-85
2020/12/17 05:13:11;;;;;;;17.52;11.88;;;8.90;99.90;;;;;;12376624;28;20111;-84
2020/12/17 05:19:12;;;;;;;19.85;12.77;;;8.90;99.90;;;;;;12391213;28;20100;-84
2020/12/17 05:25:16;;;;;;;21.33;14.02;;;8.80;99.90;;;;;;12390728;28;20116;-83
2020/12/17 05:31:20;;;;;;;24.80;15.38;;;8.70;99.90;;;;;;12398240;28;20073;-85
2020/12/17 05:37:22;;;;;;;20.90;14.27;;;8.60;99.90;;;;;;12386104;28;20065;-84
2020/12/17 05:43:30;;;;;;;25.75;15.93;;;8.60;99.90;;;;;;12384575;28;20058;-84
2020/12/17 05:49:32;;;;;;;26.48;16.80;;;8.50;99.90;;;;;;12378079;28;20062;-85
2020/12/17 05:55:34;;;;;;;24.67;16.13;;;8.40;99.90;;;;;;12398671;28;20065;-85
2020/12/17 06:01:36;;;;;;;27.40;16.73;;;8.40;99.90;;;;;;12388349;28;20166;-84
2020/12/17 06:07:40;;;;;;;25.80;16.65;;;8.40;99.90;;;;;;12375522;28;20061;-84
2020/12/17 06:13:55;;;;;;;29.20;17.67;;;8.40;99.90;;;;;;12391932;28;20507;-84
2020/12/17 06:20:00;;;;;;;27.92;18.58;;;8.20;99.90;;;;;;12394617;28;20465;-85
2020/12/17 06:26:01;;;;;;;;;;;8.20;99.90;;;;;;12396871;28;20061;-83
2020/12/17 06:32:15;;;;;;;32.00;18.70;;;8.20;99.90;;;;;;12372863;28;19930;-84
2020/12/17 06:38:21;;;;;;;29.50;18.77;;;8.10;99.90;;;;;;12393169;28;20493;-84
2020/12/17 06:44:27;;;;;;;28.83;18.13;;;8.00;99.90;;;;;;12384139;28;20054;-84
2020/12/17 06:50:30;;;;;;;30.67;18.80;;;8.00;99.90;;;;;;12392990;28;20069;-84
2020/12/17 06:56:31;;;;;;;28.75;18.23;;;8.00;99.90;;;;;;12374664;28;20088;-85
2020/12/17 07:02:40;;;;;;;28.45;18.65;;;8.00;99.90;;;;;;12386962;28;20050;-83
2020/12/17 07:08:44;;;;;;;30.80;18.75;;;7.90;99.90;;;;;;12393093;28;20490;-84
2020/12/17 07:14:46;;;;;;;26.88;17.05;;;7.90;99.90;;;;;;12392052;28;20050;-84
2020/12/17 07:20:53;;;;;;;26.45;17.70;;;7.90;99.90;;;;;;12418673;28;20089;-85
2020/12/17 07:26:59;;;;;;;24.73;17.25;;;7.90;99.90;;;;;;12404534;28;20521;-85
2020/12/17 07:33:00;;;;;;;25.90;17.02;;;8.10;99.90;;;;;;12403364;28;20505;-84
2020/12/17 07:39:08;;;;;;;23.85;15.90;;;8.10;99.90;;;;;;12394895;28;20061;-84
2020/12/17 07:45:15;;;;;;;24.98;14.85;;;8.20;99.90;;;;;;12400146;28;20057;-85
2020/12/17 07:51:19;;;;;;;19.92;13.88;;;8.30;99.90;;;;;;12377136;28;20426;-84
2020/12/17 07:57:20;;;;;;;21.00;13.50;;;8.40;99.90;;;;;;12381487;28;20141;-84
2020/12/17 08:03:22;;;;;;;19.65;12.70;;;8.50;99.90;;;;;;12405971;28;20057;-84
2020/12/17 08:09:24;;;;;;;19.48;12.50;;;8.60;99.90;;;;;;12399461;28;20054;-84
2020/12/17 08:15:25;;;;;;;18.17;11.55;;;8.70;99.90;;;;;;12389959;28;20058;-84
2020/12/17 08:21:28;;;;;;;16.90;12.25;;;8.70;99.90;;;;;;12391461;28;20475;-85
2020/12/17 08:27:29;;;;;;;17.92;12.82;;;8.70;99.90;;;;;;12388418;28;20582;-84
2020/12/17 08:33:33;;;;;;;16.73;11.95;;;8.80;99.90;;;;;;12390087;28;20053;-85
2020/12/17 08:39:34;;;;;;;17.20;12.13;;;8.80;99.90;;;;;;12384020;28;20470;-84
2020/12/17 08:45:40;;;;;;;18.20;12.50;;;8.70;99.90;;;;;;12392525;28;20145;-85
2020/12/17 08:51:46;;;;;;;20.70;13.63;;;8.80;99.90;;;;;;12395216;28;20089;-86
2020/12/17 08:57:48;;;;;;;24.35;13.90;;;8.70;99.90;;;;;;12387604;28;20498;-87
2020/12/17 09:03:51;;;;;;;22.40;13.63;;;8.60;99.90;;;;;;12374307;28;20654;-86
2020/12/17 09:09:53;;;;;;;20.98;13.13;;;8.60;99.90;;;;;;12371697;28;20069;-86
2020/12/17 09:16:02;;;;;;;21.90;13.57;;;8.60;99.90;;;;;;12391273;28;20065;-86
2020/12/17 09:22:03;;;;;;;20.77;12.95;;;8.60;99.90;;;;;;12367275;28;20442;-86
2020/12/17 09:28:18;;;;;;;18.40;13.07;;;8.60;99.90;;;;;;12397841;28;20065;-85
2020/12/17 09:34:23;;;;;;;19.20;12.48;;;8.70;99.90;;;;;;12372743;28;20442;-86
2020/12/17 09:40:25;;;;;;;23.08;12.82;;;8.80;99.90;;;;;;12384883;28;20073;-86
2020/12/17 09:46:40;;;;;;;15.25;11.32;;;8.90;99.90;;;;;;12391011;28;20529;-86
2020/12/17 09:52:42;;;;;;;14.25;9.75;;;9.00;99.90;;;;;;12392969;28;20058;-86
2020/12/17 09:58:45;;;;;;;15.00;9.75;;;9.00;99.90;;;;;;12398558;28;20107;-86
2020/12/17 10:04:47;;;;;;;15.43;9.75;;;9.00;99.90;;;;;;12367292;28;20058;-86
2020/12/17 10:10:48;;;;;;;11.32;8.18;;;9.00;99.90;;;;;;12393486;28;20081;-87
2020/12/17 10:16:57;;;;;;;12.80;9.55;;;9.10;99.90;;;;;;12350261;28;20054;-87
2020/12/17 10:22:59;;;;;;;12.13;8.10;;;9.10;99.90;;;;;;12371425;28;20079;-88
2020/12/17 10:29:00;;;;;;;12.93;8.07;;;9.20;99.90;;;;;;12402114;28;20055;-88
2020/12/17 10:35:02;;;;;;;11.13;7.65;;;9.00;99.90;;;;;;12363419;28;20050;-88
2020/12/17 10:41:03;;;;;;;12.00;8.63;;;9.00;99.90;;;;;;12403745;28;20065;-87
2020/12/17 10:47:06;;;;;;;11.90;9.00;;;9.00;99.90;;;;;;12381801;28;20102;-87
2020/12/17 10:53:07;;;;;;;12.52;8.65;;;9.00;99.90;;;;;;12373633;28;20085;-87
2020/12/17 10:59:08;;;;;;;10.35;8.50;;;9.10;99.90;;;;;;12367302;28;20057;-86
2020/12/17 11:05:10;;;;;;;11.32;9.32;;;9.10;99.90;;;;;;12387556;28;20057;-87
2020/12/17 11:11:12;;;;;;;12.13;9.23;;;9.20;99.90;;;;;;12374629;28;20529;-87
2020/12/17 11:17:13;;;;;;;10.15;8.10;;;9.20;99.90;;;;;;12385573;28;20149;-86
2020/12/17 11:23:14;;;;;;;10.45;7.97;;;9.10;99.90;;;;;;12376196;28;20518;-88
2020/12/17 11:29:16;;;;;;;9.98;7.63;;;9.20;99.90;;;;;;12380987;28;20496;-87
2020/12/17 11:35:17;;;;;;;10.48;8.32;;;9.30;99.90;;;;;;12359741;28;20068;-86
2020/12/17 11:41:21;;;;;;;10.37;7.50;;;9.40;99.90;;;;;;12367047;28;20050;-88
2020/12/17 11:47:23;;;;;;;11.13;6.88;;;9.40;99.90;;;;;;12367532;28;20417;-87
2020/12/17 11:53:24;;;;;;;10.32;7.13;;;9.40;99.90;;;;;;12365611;28;20054;-86
2020/12/17 11:59:28;;;;;;;7.90;6.55;;;9.50;99.90;;;;;;12373533;28;20054;-87
2020/12/17 12:05:30;;;;;;;7.90;6.63;;;9.60;99.90;;;;;;12383068;28;20054;-87
2020/12/17 12:11:32;;;;;;;8.43;6.47;;;9.70;99.90;;;;;;12382160;28;20097;-87
2020/12/17 12:17:33;;;;;;;6.40;5.75;;;10.00;99.90;;;;;;12374131;28;20526;-86
2020/12/17 12:23:34;;;;;;;7.03;4.80;;;9.80;99.90;;;;;;12394015;28;20085;-87
2020/12/17 12:29:36;;;;;;;7.00;5.10;;;9.80;99.90;;;;;;12384832;28;20046;-87
2020/12/17 12:35:37;;;;;;;6.30;4.50;;;9.90;99.90;;;;;;12390098;28;20053;-86
2020/12/17 12:41:38;;;;;;;6.40;3.83;;;9.80;99.90;;;;;;12382722;28;20097;-86
2020/12/17 12:47:41;;;;;;;4.82;3.10;;;9.70;99.90;;;;;;12374706;28;21631;-86
2020/12/17 12:53:43;;;;;;;6.30;3.70;;;9.70;99.90;;;;;;12372662;28;20054;-86
2020/12/17 13:00:04;;;;;;;6.28;3.35;;;9.70;99.90;;;;;;12386195;28;21415;-86
2020/12/17 13:06:16;;;;;;;4.93;2.92;;;9.80;99.90;;;;;;12370167;28;20051;-86
2020/12/17 13:12:17;;;;;;;5.95;3.17;;;9.60;99.90;;;;;;12367573;28;20138;-86
2020/12/17 13:18:18;;;;;;;4.90;2.92;;;9.70;99.90;;;;;;12370088;28;20219;-87
2020/12/17 13:24:20;;;;;;;6.70;3.05;;;9.70;99.90;;;;;;12364471;28;20153;-86
2020/12/17 13:30:22;;;;;;;5.18;2.80;;;9.70;99.90;;;;;;12371382;28;20077;-86
2020/12/17 13:36:24;;;;;;;6.05;2.90;;;9.70;99.90;;;;;;12373133;28;20490;-86
2020/12/17 13:42:26;;;;;;;5.70;2.83;;;9.70;99.90;;;;;;12397180;28;20268;-87
2020/12/17 13:48:27;;;;;;;6.97;2.35;;;9.70;99.90;;;;;;12377725;28;20057;-85
2020/12/17 13:54:28;;;;;;;5.97;2.65;;;9.50;99.90;;;;;;12371887;28;20054;-86
2020/12/17 14:00:30;;;;;;;4.55;2.70;;;9.40;99.90;;;;;;12368730;28;20078;-86
2020/12/17 14:06:31;;;;;;;6.25;2.55;;;9.60;99.90;;;;;;12358911;28;20073;-86
2020/12/17 14:12:32;;;;;;;6.20;2.83;;;9.40;99.90;;;;;;12368426;28;20046;-86
2020/12/17 14:18:35;;;;;;;5.57;2.00;;;9.30;99.90;;;;;;12387822;28;20357;-85
2020/12/17 14:24:36;;;;;;;3.55;2.00;;;9.30;99.90;;;;;;12376092;28;20077;-86
2020/12/17 14:30:37;;;;;;;4.65;1.98;;;9.30;99.90;;;;;;12376827;28;20069;-86
2020/12/17 14:36:39;;;;;;;5.63;1.73;;;9.10;99.90;;;;;;12387152;28;20417;-85
2020/12/17 14:42:41;;;;;;;5.20;2.00;;;9.20;99.90;;;;;;12365043;28;20050;-86
2020/12/17 14:48:53;;;;;;;7.32;2.03;;;9.10;99.90;;;;;;12369023;28;20061;-85
2020/12/17 14:54:55;;;;;;;7.15;1.90;;;9.20;99.90;;;;;;12384690;28;20062;-85
2020/12/17 15:00:56;;;;;;;7.68;2.17;;;9.20;99.90;;;;;;12389313;28;20390;-85
2020/12/17 15:06:57;;;;;;;7.72;2.70;;;9.00;99.90;;;;;;12373783;28;20081;-85
2020/12/17 15:13:00;;;;;;;7.43;2.30;;;9.00;99.90;;;;;;12369405;28;20533;-86
2020/12/17 15:19:10;;;;;;;7.43;2.40;;;9.10;99.90;;;;;;12383929;28;20085;-85
2020/12/17 15:25:12;;;;;;;6.60;2.00;;;9.00;99.90;;;;;;12390782;28;20077;-85
2020/12/17 15:31:13;;;;;;;5.80;2.30;;;9.10;99.90;;;;;;12389551;28;20576;-86
2020/12/17 15:37:14;;;;;;;6.25;2.45;;;9.00;99.90;;;;;;12382940;28;20046;-85
2020/12/17 15:43:17;;;;;;;6.20;3.38;;;9.00;99.90;;;;;;12373577;28;20053;-85
2020/12/17 15:49:32;;;;;;;9.25;2.35;;;9.10;99.90;;;;;;12379407;28;20046;-84
2020/12/17 15:55:33;;;;;;;6.60;2.30;;;9.00;99.90;;;;;;12401550;28;20058;-85
2020/12/17 16:01:35;;;;;;;11.02;2.33;;;9.10;99.90;;;;;;12383520;28;20057;-85
2020/12/17 16:07:36;;;;;;;5.85;2.38;;;9.00;99.90;;;;;;12396471;28;20038;-86
2020/12/17 16:13:37;;;;;;;6.10;2.40;;;9.00;99.90;;;;;;12408210;28;20077;-85
2020/12/17 16:19:49;;;;;;;7.75;2.63;;;9.00;99.90;;;;;;12388095;28;20635;-85
2020/12/17 16:25:51;;;;;;;6.93;2.40;;;9.00;99.90;;;;;;12410281;28;20050;-85
2020/12/17 16:31:52;;;;;;;6.53;2.42;;;9.00;99.90;;;;;;12409355;28;20058;-85
2020/12/17 16:37:54;;;;;;;7.53;2.53;;;8.90;99.90;;;;;;12386128;28;20073;-85
2020/12/17 16:43:55;;;;;;;7.90;2.67;;;8.90;99.90;;;;;;12416943;28;20069;-86
2020/12/17 16:50:07;;;;;;;7.18;2.78;;;8.90;99.90;;;;;;12398545;28;20053;-84
2020/12/17 16:56:08;;;;;;;7.78;2.90;;;8.80;99.90;;;;;;12370364;28;20070;-84
2020/12/17 17:02:09;;;;;;;7.07;2.15;;;8.70;99.90;;;;;;12364599;28;20058;-85
2020/12/17 17:08:11;;;;;;;7.32;2.00;;;8.70;99.90;;;;;;12395446;28;20085;-84
2020/12/17 17:14:12;;;;;;;9.35;2.60;;;8.80;99.90;;;;;;12391403;28;20089;-84
2020/12/17 17:20:25;;;;;;;5.70;2.15;;;8.80;99.90;;;;;;12373575;28;20077;-84
2020/12/17 17:26:28;;;;;;;8.65;2.88;;;8.80;99.90;;;;;;12378311;28;20061;-84
2020/12/17 17:32:29;;;;;;;10.80;2.70;;;8.80;99.90;;;;;;12395557;28;20078;-84
2020/12/17 17:38:31;;;;;;;8.18;1.90;;;8.80;99.90;;;;;;12393095;28;20084;-84
2020/12/17 17:44:33;;;;;;;7.90;2.10;;;8.90;99.90;;;;;;12389035;28;20045;-84
2020/12/17 17:50:41;;;;;;;8.30;2.17;;;8.80;99.90;;;;;;12394096;28;20061;-84
2020/12/17 17:56:42;;;;;;;7.22;2.30;;;8.80;99.90;;;;;;12391967;28;20046;-85
2020/12/17 18:02:43;;;;;;;4.82;2.00;;;8.60;99.90;;;;;;12391345;28;20982;-85
2020/12/17 18:08:46;;;;;;;6.78;2.10;;;8.60;99.90;;;;;;12374785;28;20412;-85
2020/12/17 18:14:47;;;;;;;8.05;2.47;;;8.60;99.90;;;;;;12390454;28;20092;-85
2020/12/17 18:20:56;;;;;;;7.35;2.58;;;8.60;99.90;;;;;;12396554;28;20117;-85
2020/12/17 18:27:01;;;;;;;7.72;2.80;;;8.60;99.90;;;;;;12405019;28;20056;-85
2020/12/17 18:33:02;;;;;;;7.18;3.10;;;8.60;99.90;;;;;;12377910;28;20054;-84
2020/12/17 18:39:04;;;;;;;9.95;3.00;;;8.70;99.90;;;;;;12376338;28;20062;-84
2020/12/17 18:45:06;;;;;;;9.05;3.15;;;8.70;99.90;;;;;;12380188;28;20078;-85
2020/12/17 18:51:23;;;;;;;10.45;2.83;;;8.60;99.90;;;;;;12373385;28;20056;-84
2020/12/17 18:57:25;;;;;;;6.05;2.72;;;8.60;99.90;;;;;;12396234;28;20061;-84
2020/12/17 19:03:27;;;;;;;8.55;3.33;;;8.70;99.90;;;;;;12366475;28;20042;-84
2020/12/17 19:09:28;;;;;;;10.52;3.33;;;8.60;99.90;;;;;;12387489;28;20049;-85
2020/12/17 19:15:30;;;;;;;4.95;2.95;;;8.60;99.90;;;;;;12379074;28;20086;-85
2020/12/17 19:21:34;;;;;;;7.15;3.60;;;8.60;99.90;;;;;;12393427;28;20057;-84
2020/12/17 19:27:36;;;;;;;7.95;3.15;;;8.60;99.90;;;;;;12384853;28;20045;-84
2020/12/17 19:33:37;;;;;;;6.30;3.08;;;8.50;99.90;;;;;;12382808;28;20053;-84
2020/12/17 19:39:38;;;;;;;7.00;2.72;;;8.50;99.90;;;;;;12399195;28;20524;-85
2020/12/17 19:45:40;;;;;;;7.05;3.42;;;8.50;99.90;;;;;;12386708;28;20086;-84
2020/12/17 19:51:46;;;;;;;5.65;3.20;;;8.40;99.90;;;;;;12405933;28;20153;-84
2020/12/17 19:57:47;;;;;;;7.53;3.10;;;8.40;99.90;;;;;;12405443;28;20050;-84
2020/12/17 20:03:48;;;;;;;10.10;3.05;;;8.40;99.90;;;;;;12387078;28;20093;-84
2020/12/17 20:09:51;;;;;;;6.60;2.92;;;8.20;99.90;;;;;;12398547;28;20051;-84
2020/12/17 20:15:53;;;;;;;10.80;3.42;;;8.10;99.90;;;;;;12401508;28;20058;-84
2020/12/17 20:22:01;;;;;;;6.82;2.83;;;8.00;99.90;;;;;;12393449;28;20078;-84
2020/12/17 20:28:03;;;;;;;9.20;2.92;;;8.00;99.90;;;;;;12394624;28;22140;-84
2020/12/17 20:34:05;;;;;;;6.82;3.00;;;7.90;99.90;;;;;;12385895;28;20085;-84
2020/12/17 20:40:10;;;;;;;6.93;3.13;;;7.90;99.90;;;;;;12371999;28;20513;-84
2020/12/17 20:46:12;;;;;;;8.27;3.00;;;7.70;99.90;;;;;;12387117;28;20093;-83
2020/12/17 20:52:20;;;;;;;5.63;2.80;;;7.50;99.90;;;;;;12394863;28;20050;-84
2020/12/17 20:58:21;;;;;;;8.90;3.03;;;7.40;99.90;;;;;;12376540;28;20058;-84
2020/12/17 21:04:22;;;;;;;8.98;2.95;;;7.20;99.90;;;;;;12391472;28;20729;-84
2020/12/17 21:10:24;;;;;;;11.88;3.78;;;7.20;99.90;;;;;;12373279;28;20057;-84
2020/12/17 21:16:26;;;;;;;7.10;3.35;;;7.10;99.90;;;;;;12391083;28;20512;-84
2020/12/17 21:22:43;;;;;;;8.18;2.95;;;7.00;99.90;;;;;;12382386;28;20050;-84
2020/12/17 21:28:47;;;;;;;9.90;3.58;;;7.00;99.90;;;;;;12390801;28;20061;-84
2020/12/17 21:34:48;;;;;;;10.40;3.58;;;6.80;99.90;;;;;;12375605;28;20058;-84
2020/12/17 21:40:49;;;;;;;8.68;3.17;;;6.80;99.90;;;;;;12397440;28;20058;-84
2020/12/17 21:46:51;;;;;;;8.50;2.72;;;6.70;99.90;;;;;;12376433;28;20085;-85
2020/12/17 21:52:53;;;;;;;7.03;3.45;;;6.70;99.90;;;;;;12395759;28;20490;-84
2020/12/17 21:58:54;;;;;;;6.95;2.75;;;6.70;99.90;;;;;;12391566;28;20061;-84
2020/12/17 22:04:55;;;;;;;7.55;3.08;;;6.70;99.90;;;;;;12376439;28;20068;-84
2020/12/17 22:10:57;;;;;;;5.82;2.80;;;6.60;99.90;;;;;;12389089;28;20473;-84
2020/12/17 22:16:58;;;;;;;7.50;3.47;;;6.60;99.90;;;;;;12401758;28;20073;-84
2020/12/17 22:23:11;;;;;;;5.05;2.70;;;6.60;99.90;;;;;;12374135;28;20505;-83
2020/12/17 22:29:12;;;;;;;7.47;3.10;;;6.60;99.90;;;;;;12397021;28;20070;-84
2020/12/17 22:35:13;;;;;;;8.93;3.05;;;6.60;99.90;;;;;;12391408;28;20050;-84
2020/12/17 22:41:25;;;;;;;5.88;2.70;;;6.60;99.90;;;;;;12376395;28;20578;-84
2020/12/17 22:47:26;;;;;;;7.70;3.17;;;6.60;99.90;;;;;;12367033;28;20050;-84
2020/12/17 22:53:32;;;;;;;7.43;2.97;;;6.60;99.90;;;;;;12377085;28;20054;-84
2020/12/17 22:59:34;;;;;;;7.05;2.88;;;6.60;99.90;;;;;;12375346;28;20108;-83
2020/12/17 23:05:35;;;;;;;7.57;2.95;;;6.50;99.90;;;;;;12403761;28;20038;-84
2020/12/17 23:11:37;;;;;;;8.70;3.28;;;6.50;99.90;;;;;;12402126;28;20057;-83
2020/12/17 23:17:53;;;;;;;5.13;2.60;;;6.50;99.90;;;;;;12366981;28;20050;-84
2020/12/17 23:23:55;;;;;;;7.53;3.00;;;6.60;99.90;;;;;;12370065;28;20078;-84
2020/12/17 23:29:57;;;;;;;6.90;3.28;;;6.60;99.90;;;;;;12382644;28;20502;-84
2020/12/17 23:35:59;;;;;;;7.25;2.60;;;6.70;99.90;;;;;;12382091;28;20089;-84
2020/12/17 23:42:00;;;;;;;7.18;2.90;;;6.80;99.90;;;;;;12385704;28;20130;-84
2020/12/17 23:48:01;;;;;;;6.70;2.42;;;6.70;99.90;;;;;;12361151;28;20055;-84
2020/12/17 23:54:05;;;;;;;7.45;2.42;;;6.60;99.90;;;;;;12372052;28;20062;-84
